createdAt,value
2023-02-27T00:00:14.744Z,3.20
2023-02-27T00:02:43.737Z,4.10
2023-02-27T00:05:14.641Z,3.70
2023-02-27T00:07:42.222Z,3.60
2023-02-27T00:10:11.255Z,6.10
2023-02-27T00:12:40.596Z,5.10
2023-02-27T00:15:08.484Z,6.00
2023-02-27T00:17:38.469Z,3.63
2023-02-27T00:20:11.118Z,3.10
2023-02-27T00:22:44.632Z,3.80
2023-02-27T00:25:15.188Z,4.90
2023-02-27T00:27:49.461Z,3.97
2023-02-27T00:30:16.886Z,5.40
2023-02-27T00:32:47.443Z,5.07
2023-02-27T00:35:17.115Z,5.30
2023-02-27T00:37:49.454Z,3.13
2023-02-27T00:40:19.631Z,4.73
2023-02-27T00:42:48.672Z,5.73
2023-02-27T00:45:19.783Z,5.50
2023-02-27T00:47:51.957Z,5.40
2023-02-27T00:50:19.186Z,5.40
2023-02-27T00:52:46.462Z,9.40
2023-02-27T00:55:15.712Z,3.77
2023-02-27T00:57:42.924Z,6.13
2023-02-27T01:00:11.319Z,6.17
2023-02-27T01:02:39.014Z,4.17
2023-02-27T01:05:06.741Z,4.43
2023-02-27T01:07:33.956Z,5.60
2023-02-27T01:10:08.539Z,4.93
2023-02-27T01:12:42.993Z,4.57
2023-02-27T01:15:15.272Z,6.37
2023-02-27T01:17:42.555Z,4.90
2023-02-27T01:20:13.003Z,4.40
2023-02-27T01:22:42.927Z,4.90
2023-02-27T01:25:10.471Z,5.27
2023-02-27T01:27:37.647Z,4.30
2023-02-27T01:30:05.318Z,4.90
2023-02-27T01:32:32.557Z,3.23
2023-02-27T01:35:02.230Z,6.70
2023-02-27T01:37:31.622Z,4.57
2023-02-27T01:40:00.965Z,4.73
2023-02-27T01:42:29.151Z,3.70
2023-02-27T01:45:28.187Z,4.40
2023-02-27T01:48:27.222Z,5.00
2023-02-27T01:51:00.048Z,4.77
2023-02-27T01:53:32.684Z,6.20
2023-02-27T01:56:05.666Z,4.13
2023-02-27T01:58:33.347Z,3.83
2023-02-27T02:01:02.939Z,6.93
2023-02-27T02:03:49.432Z,2.30
2023-02-27T02:06:18.940Z,7.63
2023-02-27T02:08:51.002Z,4.27
2023-02-27T02:11:20.551Z,7.10
2023-02-27T02:13:53.820Z,5.73
2023-02-27T02:16:34.395Z,3.83
2023-02-27T02:19:24.582Z,3.40
2023-02-27T02:22:25.136Z,5.27
2023-02-27T02:25:19.393Z,6.10
2023-02-27T02:28:00.600Z,4.63
2023-02-27T02:30:39.906Z,4.70
2023-02-27T02:33:25.758Z,7.30
2023-02-27T02:36:22.356Z,5.27
2023-02-27T02:38:57.134Z,5.97
2023-02-27T02:41:44.843Z,3.53
2023-02-27T02:44:35.162Z,5.27
2023-02-27T02:47:22.552Z,5.70
2023-02-27T02:50:21.528Z,5.80
2023-02-27T02:53:21.924Z,3.03
2023-02-27T02:56:00.213Z,5.17
2023-02-27T02:58:52.267Z,5.00
2023-02-27T03:01:32.818Z,2.97
2023-02-27T03:04:14.257Z,3.07
2023-02-27T03:06:47.549Z,7.53
2023-02-27T03:09:26.698Z,5.17
2023-02-27T03:11:59.000Z,4.47
2023-02-27T03:14:40.035Z,4.93
2023-02-27T03:17:14.737Z,7.73
2023-02-27T03:19:51.933Z,6.07
2023-02-27T03:22:26.614Z,4.50
2023-02-27T03:25:01.852Z,4.43
2023-02-27T03:27:38.459Z,2.23
2023-02-27T03:30:23.580Z,3.40
2023-02-27T03:33:02.789Z,5.03
2023-02-27T03:35:45.767Z,4.50
2023-02-27T03:38:41.975Z,3.63
2023-02-27T03:41:20.055Z,5.53
2023-02-27T03:44:15.577Z,4.67
2023-02-27T03:46:42.829Z,4.97
2023-02-27T03:49:12.652Z,4.33
2023-02-27T03:51:39.923Z,2.50
2023-02-27T03:54:21.675Z,3.87
2023-02-27T03:56:56.190Z,4.37
2023-02-27T03:59:27.215Z,6.17
2023-02-27T04:01:56.445Z,4.20
2023-02-27T04:04:24.591Z,4.53
2023-02-27T04:07:17.022Z,4.03
2023-02-27T04:09:49.917Z,4.47
2023-02-27T04:12:34.710Z,6.83
2023-02-27T04:15:18.067Z,3.33
2023-02-27T04:18:29.876Z,3.47
2023-02-27T04:21:03.003Z,5.00
2023-02-27T04:23:41.322Z,6.23
2023-02-27T04:26:22.826Z,4.47
2023-02-27T04:29:05.889Z,5.97
2023-02-27T04:31:58.462Z,6.77
2023-02-27T04:34:45.138Z,4.93
2023-02-27T04:37:29.944Z,3.50
2023-02-27T04:40:05.931Z,6.00
2023-02-27T04:42:43.322Z,5.73
2023-02-27T04:45:20.095Z,4.07
2023-02-27T04:47:52.943Z,3.47
2023-02-27T04:50:39.288Z,4.77
2023-02-27T04:53:23.102Z,4.73
2023-02-27T04:55:59.350Z,4.70
2023-02-27T04:58:39.588Z,5.07
2023-02-27T05:01:16.876Z,3.30
2023-02-27T05:03:49.781Z,6.03
2023-02-27T05:06:24.493Z,6.77
2023-02-27T05:08:57.588Z,6.00
2023-02-27T05:12:03.655Z,5.27
2023-02-27T05:15:07.059Z,7.60
2023-02-27T05:17:54.248Z,4.33
2023-02-27T05:20:29.507Z,4.53
2023-02-27T05:23:06.471Z,6.13
2023-02-27T05:25:40.801Z,5.83
2023-02-27T05:28:16.599Z,4.33
2023-02-27T05:30:57.379Z,3.07
2023-02-27T05:33:42.205Z,6.43
2023-02-27T05:36:13.702Z,4.23
2023-02-27T05:38:46.889Z,3.90
2023-02-27T05:41:23.999Z,5.93
2023-02-27T05:43:53.807Z,6.17
2023-02-27T05:46:43.360Z,10.07
2023-02-27T05:49:28.394Z,4.87
2023-02-27T05:52:04.174Z,4.10
2023-02-27T05:55:06.870Z,6.83
2023-02-27T05:57:59.333Z,4.90
2023-02-27T06:00:46.606Z,5.13
2023-02-27T06:03:16.285Z,5.80
2023-02-27T06:05:47.144Z,4.50
2023-02-27T06:08:19.540Z,5.67
2023-02-27T06:10:46.901Z,5.40
2023-02-27T06:13:14.022Z,4.63
2023-02-27T06:15:44.324Z,5.37
2023-02-27T06:18:15.136Z,10.90
2023-02-27T06:20:45.462Z,5.63
2023-02-27T06:23:15.488Z,4.83
2023-02-27T06:25:42.620Z,7.07
2023-02-27T06:28:14.214Z,9.70
2023-02-27T06:30:46.548Z,7.60
2023-02-27T06:33:13.901Z,6.70
2023-02-27T06:35:41.105Z,10.17
2023-02-27T06:38:08.401Z,9.40
2023-02-27T06:40:35.569Z,7.57
2023-02-27T06:43:05.252Z,6.97
2023-02-27T06:45:34.764Z,5.97
2023-02-27T06:48:02.026Z,4.23
2023-02-27T06:50:31.360Z,6.00
2023-02-27T06:52:58.607Z,8.57
2023-02-27T06:55:28.168Z,7.57
2023-02-27T06:57:57.478Z,6.23
2023-02-27T07:00:29.426Z,6.07
2023-02-27T07:02:58.806Z,5.67
2023-02-27T07:05:26.104Z,7.90
2023-02-27T07:07:53.290Z,9.00
2023-02-27T07:10:22.972Z,7.00
2023-02-27T07:12:55.185Z,5.37
2023-02-27T07:15:22.606Z,9.97
2023-02-27T07:17:54.576Z,5.83
2023-02-27T07:20:28.552Z,6.43
2023-02-27T07:22:55.770Z,6.57
2023-02-27T07:25:22.920Z,7.00
2023-02-27T07:27:53.089Z,7.83
2023-02-27T07:30:22.809Z,9.07
2023-02-27T07:32:50.743Z,7.37
2023-02-27T07:35:18.668Z,7.43
2023-02-27T07:37:47.773Z,8.27
2023-02-27T07:40:17.424Z,9.53
2023-02-27T07:42:48.950Z,8.97
2023-02-27T07:45:18.843Z,9.30
2023-02-27T07:47:51.065Z,6.53
2023-02-27T07:50:22.791Z,10.27
2023-02-27T07:52:51.743Z,9.00
2023-02-27T07:55:21.344Z,9.37
2023-02-27T07:57:52.681Z,9.60
2023-02-27T08:00:22.474Z,9.33
2023-02-27T08:02:54.609Z,7.50
2023-02-27T08:05:21.972Z,10.20
2023-02-27T08:07:54.007Z,8.23
2023-02-27T08:10:23.399Z,9.17
2023-02-27T08:12:50.711Z,6.90
2023-02-27T08:15:20.308Z,11.23
2023-02-27T08:17:50.391Z,11.87
2023-02-27T08:20:22.703Z,6.67
2023-02-27T08:22:52.254Z,8.00
2023-02-27T08:25:20.572Z,10.40
2023-02-27T08:27:52.352Z,8.80
2023-02-27T08:30:21.800Z,7.73
2023-02-27T08:32:52.252Z,9.30
2023-02-27T08:35:20.021Z,13.27
2023-02-27T08:37:54.564Z,7.40
2023-02-27T08:40:21.875Z,8.53
2023-02-27T08:42:51.716Z,9.67
2023-02-27T08:45:21.542Z,8.43
2023-02-27T08:47:49.128Z,9.03
2023-02-27T08:50:19.675Z,11.20
2023-02-27T08:52:46.900Z,9.53
2023-02-27T08:55:16.760Z,11.40
2023-02-27T08:57:51.190Z,8.67
2023-02-27T09:00:23.696Z,11.10
2023-02-27T09:02:53.588Z,10.17
2023-02-27T09:05:21.030Z,7.67
2023-02-27T09:07:53.291Z,8.50
2023-02-27T09:10:23.072Z,7.73
2023-02-27T09:12:57.254Z,9.73
2023-02-27T09:15:24.869Z,10.07
2023-02-27T09:17:54.781Z,6.10
2023-02-27T09:20:24.444Z,5.80
2023-02-27T09:22:56.789Z,6.23
2023-02-27T09:25:26.226Z,5.30
2023-02-27T09:27:53.409Z,7.33
2023-02-27T09:30:21.035Z,8.73
2023-02-27T09:32:51.068Z,6.13
2023-02-27T09:35:21.502Z,5.97
2023-02-27T09:37:49.678Z,8.10
2023-02-27T09:40:31.753Z,6.70
2023-02-27T09:43:16.390Z,5.93
2023-02-27T09:45:54.428Z,5.67
2023-02-27T09:48:35.169Z,6.30
2023-02-27T09:51:03.086Z,2.87
2023-02-27T09:53:42.931Z,5.03
2023-02-27T09:56:15.764Z,5.20
2023-02-27T09:58:57.073Z,6.70
2023-02-27T10:01:28.325Z,8.17
2023-02-27T10:04:12.785Z,6.03
2023-02-27T10:07:16.951Z,7.43
2023-02-27T10:09:56.405Z,8.43
2023-02-27T10:12:26.917Z,9.13
2023-02-27T10:15:02.895Z,6.63
2023-02-27T10:17:48.480Z,8.47
2023-02-27T10:20:32.591Z,5.40
2023-02-27T10:23:11.353Z,9.03
2023-02-27T10:25:46.834Z,9.57
2023-02-27T10:28:20.750Z,3.73
2023-02-27T10:30:54.675Z,7.93
2023-02-27T10:33:30.459Z,4.47
2023-02-27T10:36:02.164Z,3.47
2023-02-27T10:38:55.361Z,7.07
2023-02-27T10:41:24.198Z,4.37
2023-02-27T10:43:59.563Z,4.17
2023-02-27T10:46:30.308Z,4.70
2023-02-27T10:49:02.370Z,6.50
2023-02-27T10:51:32.966Z,4.87
2023-02-27T10:54:36.792Z,6.90
2023-02-27T10:57:17.360Z,4.80
2023-02-27T10:59:53.015Z,5.73
2023-02-27T11:02:23.085Z,8.27
2023-02-27T11:04:56.334Z,4.70
2023-02-27T11:07:42.147Z,6.77
2023-02-27T11:10:17.832Z,7.60
2023-02-27T11:13:18.370Z,4.50
2023-02-27T11:16:06.391Z,4.27
2023-02-27T11:18:35.595Z,4.87
2023-02-27T11:21:19.744Z,2.40
2023-02-27T11:24:20.036Z,4.23
2023-02-27T11:26:56.769Z,5.57
2023-02-27T11:29:30.029Z,4.03
2023-02-27T11:32:05.370Z,3.93
2023-02-27T11:34:39.198Z,5.73
2023-02-27T11:37:19.261Z,5.60
2023-02-27T11:39:53.233Z,4.33
2023-02-27T11:42:32.616Z,3.93
2023-02-27T11:45:11.033Z,6.77
2023-02-27T11:47:41.013Z,3.13
2023-02-27T11:51:01.765Z,7.10
2023-02-27T11:53:42.186Z,3.23
2023-02-27T11:56:18.808Z,8.50
2023-02-27T11:59:06.966Z,6.60
2023-02-27T12:01:45.714Z,6.47
2023-02-27T12:04:31.948Z,5.33
2023-02-27T12:07:49.660Z,6.27
2023-02-27T12:10:23.046Z,6.63
2023-02-27T12:13:03.287Z,6.27
2023-02-27T12:15:46.951Z,3.40
2023-02-27T12:18:43.555Z,5.13
2023-02-27T12:21:18.241Z,5.30
2023-02-27T12:23:57.736Z,7.33
2023-02-27T12:26:44.849Z,3.97
2023-02-27T12:29:24.740Z,4.40
2023-02-27T12:32:13.768Z,3.93
2023-02-27T12:34:43.893Z,2.73
2023-02-27T12:37:23.237Z,4.00
2023-02-27T12:39:52.765Z,3.17
2023-02-27T12:42:42.887Z,3.43
2023-02-27T12:45:51.926Z,2.97
2023-02-27T12:48:51.760Z,3.73
2023-02-27T12:51:34.604Z,3.60
2023-02-27T12:54:20.687Z,3.13
2023-02-27T12:57:13.606Z,3.97
2023-02-27T13:00:10.297Z,4.20
2023-02-27T13:02:56.682Z,3.23
2023-02-27T13:05:37.802Z,4.70
2023-02-27T13:08:23.603Z,5.20
2023-02-27T13:11:07.688Z,6.67
2023-02-27T13:14:24.839Z,4.23
2023-02-27T13:17:03.072Z,7.57
2023-02-27T13:19:50.389Z,5.67
2023-02-27T13:22:17.854Z,4.70
2023-02-27T13:24:55.017Z,4.50
2023-02-27T13:27:42.438Z,3.17
2023-02-27T13:30:14.831Z,4.90
2023-02-27T13:32:48.969Z,4.87
2023-02-27T13:35:44.133Z,5.23
2023-02-27T13:38:49.461Z,4.17
2023-02-27T13:41:28.999Z,4.50
2023-02-27T13:43:57.694Z,4.90
2023-02-27T13:46:27.244Z,5.07
2023-02-27T13:49:14.676Z,4.83
2023-02-27T13:51:53.633Z,6.30
2023-02-27T13:54:23.521Z,3.60
2023-02-27T13:56:53.228Z,3.43
2023-02-27T13:59:30.214Z,4.07
2023-02-27T14:02:05.248Z,9.53
2023-02-27T14:04:46.812Z,5.90
2023-02-27T14:07:21.627Z,7.97
2023-02-27T14:10:11.387Z,5.93
2023-02-27T14:12:46.962Z,3.93
2023-02-27T14:15:26.530Z,4.07
2023-02-27T14:18:11.459Z,7.17
2023-02-27T14:20:41.453Z,3.00
2023-02-27T14:23:21.333Z,6.43
2023-02-27T14:25:56.914Z,7.60
2023-02-27T14:28:31.476Z,2.53
2023-02-27T14:31:08.743Z,2.70
2023-02-27T14:33:50.619Z,3.77
2023-02-27T14:36:21.509Z,4.77
2023-02-27T14:38:55.247Z,3.17
2023-02-27T14:41:49.637Z,5.20
2023-02-27T14:44:28.221Z,4.00
2023-02-27T14:46:58.719Z,5.10
2023-02-27T14:49:28.219Z,3.63
2023-02-27T14:52:12.375Z,2.77
2023-02-27T14:54:44.140Z,2.70
2023-02-27T14:57:25.182Z,2.40
2023-02-27T14:59:56.709Z,3.70
2023-02-27T15:02:34.900Z,3.17
2023-02-27T15:05:04.975Z,4.03
2023-02-27T15:07:35.363Z,3.50
2023-02-27T15:10:09.726Z,3.80
2023-02-27T15:12:40.022Z,2.80
2023-02-27T15:15:09.828Z,3.23
2023-02-27T15:17:46.096Z,4.67
2023-02-27T15:20:36.923Z,3.17
2023-02-27T15:23:26.109Z,3.20
2023-02-27T15:26:00.284Z,8.30
2023-02-27T15:28:36.437Z,4.33
2023-02-27T15:31:11.618Z,3.60
2023-02-27T15:33:40.980Z,4.10
2023-02-27T15:36:10.629Z,3.37
2023-02-27T15:38:44.635Z,3.93
2023-02-27T15:41:13.606Z,6.17
2023-02-27T15:43:41.639Z,3.10
2023-02-27T15:46:11.106Z,4.13
2023-02-27T15:48:38.503Z,4.17
2023-02-27T15:51:06.047Z,4.37
2023-02-27T15:53:35.736Z,4.63
2023-02-27T15:56:09.907Z,4.97
2023-02-27T15:58:43.134Z,4.50
2023-02-27T16:01:35.050Z,3.33
2023-02-27T16:04:15.027Z,2.30
2023-02-27T16:06:51.321Z,4.40
2023-02-27T16:09:25.579Z,5.57
2023-02-27T16:12:10.528Z,4.30
2023-02-27T16:14:41.641Z,3.07
2023-02-27T16:17:25.534Z,6.40
2023-02-27T16:19:56.065Z,6.17
2023-02-27T16:22:30.452Z,3.70
2023-02-27T16:25:13.075Z,5.67
2023-02-27T16:27:40.359Z,4.70
2023-02-27T16:30:11.603Z,3.50
2023-02-27T16:32:46.636Z,2.33
2023-02-27T16:35:22.551Z,4.97
2023-02-27T16:37:53.589Z,2.67
2023-02-27T16:40:28.500Z,5.37
2023-02-27T16:42:56.788Z,4.43
2023-02-27T16:45:31.240Z,1.50
2023-02-27T16:48:02.973Z,2.60
2023-02-27T16:50:37.933Z,2.50
2023-02-27T16:53:05.599Z,2.73
2023-02-27T16:55:39.033Z,2.93
2023-02-27T16:58:06.765Z,3.40
2023-02-27T17:00:38.580Z,2.60
2023-02-27T17:03:07.975Z,3.07
2023-02-27T17:05:37.538Z,3.53
2023-02-27T17:08:07.279Z,3.23
2023-02-27T17:10:39.034Z,2.97
2023-02-27T17:13:08.768Z,3.70
2023-02-27T17:15:35.862Z,2.20
2023-02-27T17:18:09.415Z,5.07
2023-02-27T17:20:39.161Z,4.90
2023-02-27T17:23:13.410Z,4.73
2023-02-27T17:25:43.819Z,4.43
2023-02-27T17:28:11.702Z,4.20
2023-02-27T17:30:39.585Z,4.73
2023-02-27T17:33:08.899Z,4.10
2023-02-27T17:35:36.272Z,3.33
2023-02-27T17:38:07.419Z,4.57
2023-02-27T17:40:39.357Z,2.60
2023-02-27T17:43:09.099Z,3.27
2023-02-27T17:45:36.196Z,3.43
2023-02-27T17:48:03.402Z,5.80
2023-02-27T17:50:32.568Z,4.37
2023-02-27T17:52:59.709Z,3.60
2023-02-27T17:55:32.087Z,2.97
2023-02-27T17:58:01.702Z,3.73
2023-02-27T18:00:31.458Z,6.17
2023-02-27T18:02:58.647Z,3.80
2023-02-27T18:05:28.051Z,3.97
2023-02-27T18:07:56.007Z,3.30
2023-02-27T18:10:23.124Z,2.83
2023-02-27T18:12:50.252Z,4.43
2023-02-27T18:15:22.163Z,4.43
2023-02-27T18:17:54.247Z,4.73
2023-02-27T18:20:25.792Z,4.70
2023-02-27T18:22:55.351Z,3.63
2023-02-27T18:25:24.649Z,4.93
2023-02-27T18:28:01.248Z,4.70
2023-02-27T18:30:36.771Z,3.53
2023-02-27T18:33:06.506Z,5.87
2023-02-27T18:35:36.112Z,5.13
2023-02-27T18:38:08.244Z,4.97
2023-02-27T18:40:37.892Z,4.33
2023-02-27T18:43:07.774Z,5.63
2023-02-27T18:45:39.808Z,4.33
2023-02-27T18:48:09.830Z,6.00
2023-02-27T18:50:39.428Z,4.30
2023-02-27T18:53:08.801Z,6.33
2023-02-27T18:55:35.923Z,4.00
2023-02-27T18:58:06.253Z,3.40
2023-02-27T19:00:35.786Z,7.13
2023-02-27T19:03:05.634Z,3.57
2023-02-27T19:05:41.444Z,3.43
2023-02-27T19:08:10.872Z,2.87
2023-02-27T19:10:42.419Z,3.17
2023-02-27T19:13:13.627Z,5.67
2023-02-27T19:15:45.055Z,5.30
2023-02-27T19:18:12.279Z,4.03
2023-02-27T19:20:41.879Z,5.50
2023-02-27T19:23:09.028Z,3.67
2023-02-27T19:25:42.014Z,3.87
2023-02-27T19:28:11.598Z,4.77
2023-02-27T19:30:39.906Z,6.63
2023-02-27T19:33:11.751Z,3.73
2023-02-27T19:35:43.515Z,3.57
2023-02-27T19:38:11.215Z,5.23
2023-02-27T19:40:42.836Z,4.40
2023-02-27T19:43:15.238Z,5.87
2023-02-27T19:45:44.699Z,5.53
2023-02-27T19:48:12.083Z,5.43
2023-02-27T19:50:41.181Z,6.03
2023-02-27T19:53:10.956Z,5.87
2023-02-27T19:55:40.217Z,5.60
2023-02-27T19:58:09.779Z,4.90
2023-02-27T20:00:36.958Z,6.27
2023-02-27T20:03:06.544Z,6.17
2023-02-27T20:05:38.170Z,6.60
2023-02-27T20:08:08.501Z,5.93
2023-02-27T20:10:39.991Z,4.57
2023-02-27T20:13:11.623Z,7.30
2023-02-27T20:15:43.775Z,5.87
2023-02-27T20:18:18.114Z,7.10
2023-02-27T20:20:47.276Z,4.93
2023-02-27T20:23:15.475Z,4.63
2023-02-27T20:25:42.578Z,6.57
2023-02-27T20:28:12.150Z,4.43
2023-02-27T20:30:41.868Z,6.07
2023-02-27T20:33:11.165Z,6.53
2023-02-27T20:35:39.303Z,4.60
2023-02-27T20:38:06.816Z,4.30
2023-02-27T20:40:34.332Z,4.43
2023-02-27T20:43:04.743Z,5.93
2023-02-27T20:45:33.989Z,6.60
2023-02-27T20:48:03.527Z,8.53
2023-02-27T20:50:36.613Z,5.63
2023-02-27T20:53:06.254Z,6.03
2023-02-27T20:55:38.007Z,5.97
2023-02-27T20:58:06.015Z,7.27
2023-02-27T21:00:35.492Z,5.90
2023-02-27T21:03:05.635Z,6.10
2023-02-27T21:05:37.655Z,6.97
2023-02-27T21:08:09.938Z,6.30
2023-02-27T21:10:41.706Z,5.43
2023-02-27T21:13:08.884Z,7.33
2023-02-27T21:15:38.630Z,6.23
2023-02-27T21:18:05.892Z,7.33
2023-02-27T21:20:33.048Z,8.47
2023-02-27T21:23:00.328Z,7.07
2023-02-27T21:25:32.145Z,6.40
2023-02-27T21:28:02.236Z,8.73
2023-02-27T21:30:36.065Z,6.03
2023-02-27T21:33:04.565Z,8.10
2023-02-27T21:35:36.698Z,5.73
2023-02-27T21:38:06.038Z,5.77
2023-02-27T21:40:35.620Z,7.13
2023-02-27T21:43:04.837Z,6.43
2023-02-27T21:45:35.613Z,11.17
2023-02-27T21:48:08.264Z,8.37
2023-02-27T21:50:37.839Z,5.77
2023-02-27T21:53:07.595Z,7.63
2023-02-27T21:55:35.105Z,6.43
2023-02-27T21:58:07.575Z,8.20
2023-02-27T22:00:37.206Z,8.07
2023-02-27T22:03:07.746Z,6.37
2023-02-27T22:05:34.934Z,8.27
2023-02-27T22:08:02.678Z,11.57
2023-02-27T22:10:29.785Z,7.10
2023-02-27T22:13:01.484Z,10.30
2023-02-27T22:15:30.758Z,8.10
2023-02-27T22:17:57.915Z,8.80
2023-02-27T22:20:29.660Z,9.23
2023-02-27T22:22:59.451Z,7.60
2023-02-27T22:25:28.654Z,6.70
2023-02-27T22:27:55.746Z,9.37
2023-02-27T22:30:22.889Z,9.23
2023-02-27T22:32:52.270Z,8.50
2023-02-27T22:35:26.434Z,8.03
2023-02-27T22:37:56.216Z,8.37
2023-02-27T22:40:25.427Z,8.37
2023-02-27T22:42:52.541Z,5.97
2023-02-27T22:45:21.962Z,7.37
2023-02-27T22:47:53.376Z,9.87
2023-02-27T22:50:22.667Z,11.50
2023-02-27T22:52:51.803Z,9.87
2023-02-27T22:55:18.920Z,10.83
2023-02-27T22:57:51.831Z,8.10
2023-02-27T23:00:19.382Z,11.93
2023-02-27T23:02:48.972Z,6.50
2023-02-27T23:05:16.186Z,9.30
2023-02-27T23:07:43.704Z,10.53
2023-02-27T23:10:13.637Z,9.73
2023-02-27T23:12:44.977Z,8.97
2023-02-27T23:15:12.258Z,10.20
2023-02-27T23:17:52.040Z,8.17
2023-02-27T23:20:26.717Z,8.47
2023-02-27T23:22:56.370Z,10.13
2023-02-27T23:25:32.682Z,10.13
2023-02-27T23:28:03.789Z,6.90
2023-02-27T23:30:31.440Z,8.70
2023-02-27T23:33:03.468Z,9.63
2023-02-27T23:35:30.712Z,8.67
2023-02-27T23:37:59.187Z,7.37
2023-02-27T23:40:28.870Z,9.87
2023-02-27T23:42:55.973Z,10.23
2023-02-27T23:45:23.225Z,9.13
2023-02-27T23:47:58.519Z,9.47
2023-02-27T23:50:34.924Z,9.33
2023-02-27T23:53:02.324Z,9.20
2023-02-27T23:55:31.109Z,6.87
2023-02-27T23:58:05.495Z,8.10
